sensor_id;sensor_type;location;lat;lon;timestamp;pressure;altitude;pressure_sealevel;temperature;humidity
65756;BME280;69208;47.502;18.940;2023-11-19T00:00:45;98672.56;;;0.27;100.00
65756;BME280;69208;47.502;18.940;2023-11-19T00:01:55;98678.28;;;0.29;100.00
65756;BME280;69208;47.502;18.940;2023-11-19T00:02:59;98679.88;;;0.30;100.00
65756;BME280;69208;47.502;18.940;2023-11-19T00:04:03;98683.81;;;0.33;100.00
65756;BME280;69208;47.502;18.940;2023-11-19T00:05:08;98680.44;;;0.32;100.00
65756;BME280;69208;47.502;18.940;2023-11-19T00:06:15;98674.84;;;0.35;100.00
65756;BME280;69208;47.502;18.940;2023-11-19T00:07:20;98675.44;;;0.37;100.00
65756;BME280;69208;47.502;18.940;2023-11-19T00:08:25;98672.66;;;0.39;100.00
65756;BME280;69208;47.502;18.940;2023-11-19T00:09:30;98665.13;;;0.37;100.00
65756;BME280;69208;47.502;18.940;2023-11-19T00:10:33;98673.28;;;0.34;100.00
65756;BME280;69208;47.502;18.940;2023-11-19T00:11:36;98671.84;;;0.38;100.00
65756;BME280;69208;47.502;18.940;2023-11-19T00:12:43;98676.66;;;0.35;100.00
65756;BME280;69208;47.502;18.940;2023-11-19T00:13:47;98678.88;;;0.31;100.00
65756;BME280;69208;47.502;18.940;2023-11-19T00:14:50;98669.16;;;0.33;100.00
65756;BME280;69208;47.502;18.940;2023-11-19T00:15:53;98660.63;;;0.33;100.00
65756;BME280;69208;47.502;18.940;2023-11-19T00:16:56;98660.22;;;0.36;100.00
65756;BME280;69208;47.502;18.940;2023-11-19T00:17:59;98661.19;;;0.35;100.00
65756;BME280;69208;47.502;18.940;2023-11-19T00:19:05;98664.78;;;0.34;100.00
65756;BME280;69208;47.502;18.940;2023-11-19T00:20:08;98665.78;;;0.33;100.00
65756;BME280;69208;47.502;18.940;2023-11-19T00:21:12;98683.44;;;0.29;100.00
65756;BME280;69208;47.502;18.940;2023-11-19T00:22:15;98671.12;;;0.31;100.00
65756;BME280;69208;47.502;18.940;2023-11-19T00:23:18;98672.16;;;0.30;100.00
65756;BME280;69208;47.502;18.940;2023-11-19T00:24:21;98668.56;;;0.31;100.00
65756;BME280;69208;47.502;18.940;2023-11-19T00:25:24;98671.91;;;0.32;100.00
65756;BME280;69208;47.502;18.940;2023-11-19T00:26:28;98674.50;;;0.32;100.00
65756;BME280;69208;47.502;18.940;2023-11-19T00:27:32;98666.22;;;0.30;100.00
65756;BME280;69208;47.502;18.940;2023-11-19T00:28:35;98680.88;;;0.29;100.00
65756;BME280;69208;47.502;18.940;2023-11-19T00:29:41;98682.06;;;0.27;100.00
65756;BME280;69208;47.502;18.940;2023-11-19T00:30:45;98688.03;;;0.27;100.00
65756;BME280;69208;47.502;18.940;2023-11-19T00:31:48;98687.44;;;0.25;100.00
65756;BME280;69208;47.502;18.940;2023-11-19T00:32:52;98690.37;;;0.29;100.00
65756;BME280;69208;47.502;18.940;2023-11-19T00:33:55;98682.81;;;0.34;100.00
65756;BME280;69208;47.502;18.940;2023-11-19T00:34:59;98688.56;;;0.36;100.00
65756;BME280;69208;47.502;18.940;2023-11-19T00:36:02;98683.41;;;0.36;100.00
65756;BME280;69208;47.502;18.940;2023-11-19T00:37:05;98675.44;;;0.37;100.00
65756;BME280;69208;47.502;18.940;2023-11-19T00:38:09;98676.81;;;0.40;100.00
65756;BME280;69208;47.502;18.940;2023-11-19T00:39:13;98674.66;;;0.37;100.00
65756;BME280;69208;47.502;18.940;2023-11-19T00:40:17;98676.44;;;0.36;100.00
65756;BME280;69208;47.502;18.940;2023-11-19T00:41:24;98673.59;;;0.44;100.00
65756;BME280;69208;47.502;18.940;2023-11-19T00:42:28;98676.53;;;0.48;100.00
65756;BME280;69208;47.502;18.940;2023-11-19T00:43:31;98681.97;;;0.58;100.00
65756;BME280;69208;47.502;18.940;2023-11-19T00:44:34;98672.31;;;0.54;100.00
65756;BME280;69208;47.502;18.940;2023-11-19T00:45:37;98674.53;;;0.50;100.00
65756;BME280;69208;47.502;18.940;2023-11-19T00:46:40;98668.16;;;0.53;100.00
65756;BME280;69208;47.502;18.940;2023-11-19T00:47:43;98664.16;;;0.57;100.00
65756;BME280;69208;47.502;18.940;2023-11-19T00:48:46;98662.56;;;0.56;100.00
65756;BME280;69208;47.502;18.940;2023-11-19T00:49:50;98662.56;;;0.56;100.00
65756;BME280;69208;47.502;18.940;2023-11-19T00:50:53;98665.72;;;0.58;100.00
65756;BME280;69208;47.502;18.940;2023-11-19T00:51:56;98660.56;;;0.58;100.00
65756;BME280;69208;47.502;18.940;2023-11-19T00:53:00;98661.00;;;0.55;100.00
65756;BME280;69208;47.502;18.940;2023-11-19T00:54:03;98660.00;;;0.56;100.00
65756;BME280;69208;47.502;18.940;2023-11-19T00:55:06;98655.50;;;0.51;100.00
65756;BME280;69208;47.502;18.940;2023-11-19T00:56:10;98655.69;;;0.50;100.00
65756;BME280;69208;47.502;18.940;2023-11-19T00:57:15;98657.84;;;0.53;100.00
65756;BME280;69208;47.502;18.940;2023-11-19T00:58:18;98654.31;;;0.47;100.00
65756;BME280;69208;47.502;18.940;2023-11-19T00:59:21;98652.84;;;0.39;100.00
65756;BME280;69208;47.502;18.940;2023-11-19T01:00:25;98650.25;;;0.39;100.00
65756;BME280;69208;47.502;18.940;2023-11-19T01:01:30;98653.41;;;0.41;100.00
65756;BME280;69208;47.502;18.940;2023-11-19T01:02:33;98653.41;;;0.41;100.00
65756;BME280;69208;47.502;18.940;2023-11-19T01:03:37;98644.66;;;0.42;100.00
65756;BME280;69208;47.502;18.940;2023-11-19T01:04:41;98648.25;;;0.41;100.00
65756;BME280;69208;47.502;18.940;2023-11-19T01:05:44;98643.31;;;0.40;100.00
65756;BME280;69208;47.502;18.940;2023-11-19T01:06:49;98653.19;;;0.43;100.00
65756;BME280;69208;47.502;18.940;2023-11-19T01:07:53;98655.69;;;0.50;100.00
65756;BME280;69208;47.502;18.940;2023-11-19T01:08:57;98662.47;;;0.44;100.00
65756;BME280;69208;47.502;18.940;2023-11-19T01:10:01;98660.13;;;0.42;100.00
65756;BME280;69208;47.502;18.940;2023-11-19T01:11:06;98654.75;;;0.44;100.00
65756;BME280;69208;47.502;18.940;2023-11-19T01:12:09;98658.34;;;0.43;100.00
65756;BME280;69208;47.502;18.940;2023-11-19T01:13:13;98658.78;;;0.40;100.00
65756;BME280;69208;47.502;18.940;2023-11-19T01:14:16;98652.75;;;0.28;100.00
65756;BME280;69208;47.502;18.940;2023-11-19T01:15:20;98656.09;;;0.28;100.00
65756;BME280;69208;47.502;18.940;2023-11-19T01:16:23;98655.53;;;0.26;100.00
65756;BME280;69208;47.502;18.940;2023-11-19T01:17:27;98656.31;;;0.27;100.00
65756;BME280;69208;47.502;18.940;2023-11-19T01:18:30;98660.13;;;0.24;100.00
65756;BME280;69208;47.502;18.940;2023-11-19T01:19:33;98655.22;;;0.16;100.00
65756;BME280;69208;47.502;18.940;2023-11-19T01:20:37;98662.38;;;0.14;100.00
65756;BME280;69208;47.502;18.940;2023-11-19T01:21:40;98661.78;;;0.12;100.00
65756;BME280;69208;47.502;18.940;2023-11-19T01:22:43;98665.19;;;0.12;100.00
65756;BME280;69208;47.502;18.940;2023-11-19T01:23:46;98666.56;;;0.08;100.00
65756;BME280;69208;47.502;18.940;2023-11-19T01:24:49;98661.50;;;0.02;100.00
65756;BME280;69208;47.502;18.940;2023-11-19T01:25:52;98660.13;;;-0.01;100.00
65756;BME280;69208;47.502;18.940;2023-11-19T01:26:55;98657.38;;;-0.06;100.00
65756;BME280;69208;47.502;18.940;2023-11-19T01:28:00;98668.50;;;-0.06;100.00
65756;BME280;69208;47.502;18.940;2023-11-19T01:29:05;98661.72;;;0.00;100.00
65756;BME280;69208;47.502;18.940;2023-11-19T01:30:10;98672.38;;;0.04;100.00
65756;BME280;69208;47.502;18.940;2023-11-19T01:31:16;98667.66;;;0.01;100.00
65756;BME280;69208;47.502;18.940;2023-11-19T01:32:19;98666.38;;;0.10;100.00
65756;BME280;69208;47.502;18.940;2023-11-19T01:33:22;98662.63;;;0.06;100.00
65756;BME280;69208;47.502;18.940;2023-11-19T01:34:26;98663.06;;;0.03;100.00
65756;BME280;69208;47.502;18.940;2023-11-19T01:35:29;98661.28;;;0.03;100.00
65756;BME280;69208;47.502;18.940;2023-11-19T01:36:32;98654.47;;;0.09;100.00
65756;BME280;69208;47.502;18.940;2023-11-19T01:37:36;98650.59;;;-0.01;100.00
65756;BME280;69208;47.502;18.940;2023-11-19T01:38:39;98661.75;;;-0.07;100.00
65756;BME280;69208;47.502;18.940;2023-11-19T01:39:46;98650.31;;;-0.11;100.00
65756;BME280;69208;47.502;18.940;2023-11-19T01:41:01;98650.59;;;-0.01;100.00
65756;BME280;69208;47.502;18.940;2023-11-19T01:42:07;98648.66;;;-0.05;100.00
65756;BME280;69208;47.502;18.940;2023-11-19T01:43:10;98647.78;;;-0.17;100.00
65756;BME280;69208;47.502;18.940;2023-11-19T01:44:14;98645.94;;;-0.10;100.00
65756;BME280;69208;47.502;18.940;2023-11-19T01:45:37;98647.47;;;-0.03;100.00
65756;BME280;69208;47.502;18.940;2023-11-19T01:46:44;98649.66;;;-0.06;100.00
65756;BME280;69208;47.502;18.940;2023-11-19T01:47:51;98647.81;;;0.01;100.00
65756;BME280;69208;47.502;18.940;2023-11-19T01:48:54;98643.87;;;-0.02;100.00
65756;BME280;69208;47.502;18.940;2023-11-19T01:49:59;98650.81;;;-0.02;100.00
65756;BME280;69208;47.502;18.940;2023-11-19T01:51:03;98647.31;;;-0.08;100.00
65756;BME280;69208;47.502;18.940;2023-11-19T01:52:07;98632.09;;;-0.16;100.00
65756;BME280;69208;47.502;18.940;2023-11-19T01:53:11;98630.22;;;-0.27;100.00
65756;BME280;69208;47.502;18.940;2023-11-19T01:54:14;98627.69;;;-0.34;100.00
65756;BME280;69208;47.502;18.940;2023-11-19T01:55:22;98619.53;;;-0.31;100.00
65756;BME280;69208;47.502;18.940;2023-11-19T01:56:27;98622.22;;;-0.19;100.00
65756;BME280;69208;47.502;18.940;2023-11-19T01:57:30;98623.25;;;-0.20;100.00
65756;BME280;69208;47.502;18.940;2023-11-19T01:58:33;98619.41;;;-0.11;100.00
65756;BME280;69208;47.502;18.940;2023-11-19T01:59:37;98621.19;;;-0.11;100.00
65756;BME280;69208;47.502;18.940;2023-11-19T02:00:42;98624.59;;;-0.17;100.00
65756;BME280;69208;47.502;18.940;2023-11-19T02:01:46;98612.34;;;-0.22;100.00
65756;BME280;69208;47.502;18.940;2023-11-19T02:02:50;98609.19;;;-0.24;100.00
65756;BME280;69208;47.502;18.940;2023-11-19T02:03:56;98621.94;;;-0.29;100.00
65756;BME280;69208;47.502;18.940;2023-11-19T02:05:01;98620.75;;;-0.33;100.00
65756;BME280;69208;47.502;18.940;2023-11-19T02:06:04;98616.78;;;-0.29;100.00
65756;BME280;69208;47.502;18.940;2023-11-19T02:07:08;98608.66;;;-0.33;100.00
65756;BME280;69208;47.502;18.940;2023-11-19T02:08:12;98602.47;;;-0.25;100.00
65756;BME280;69208;47.502;18.940;2023-11-19T02:09:16;98602.91;;;-0.28;100.00
65756;BME280;69208;47.502;18.940;2023-11-19T02:10:22;98601.34;;;-0.29;100.00
65756;BME280;69208;47.502;18.940;2023-11-19T02:11:28;98603.69;;;-0.28;100.00
65756;BME280;69208;47.502;18.940;2023-11-19T02:12:33;98610.81;;;-0.30;100.00
65756;BME280;69208;47.502;18.940;2023-11-19T02:13:40;98607.63;;;-0.25;100.00
65756;BME280;69208;47.502;18.940;2023-11-19T02:14:44;98605.22;;;-0.20;100.00
65756;BME280;69208;47.502;18.940;2023-11-19T02:15:47;98611.56;;;-0.22;100.00
65756;BME280;69208;47.502;18.940;2023-11-19T02:16:50;98615.09;;;-0.17;100.00
65756;BME280;69208;47.502;18.940;2023-11-19T02:17:53;98610.31;;;-0.13;100.00
65756;BME280;69208;47.502;18.940;2023-11-19T02:18:56;98608.66;;;-0.08;100.00
65756;BME280;69208;47.502;18.940;2023-11-19T02:20:00;98608.09;;;-0.10;100.00
65756;BME280;69208;47.502;18.940;2023-11-19T02:21:03;98609.16;;;-0.17;100.00
65756;BME280;69208;47.502;18.940;2023-11-19T02:22:08;98610.38;;;-0.20;100.00
65756;BME280;69208;47.502;18.940;2023-11-19T02:23:12;98606.78;;;-0.19;100.00
65756;BME280;69208;47.502;18.940;2023-11-19T02:24:17;98599.84;;;-0.18;100.00
65756;BME280;69208;47.502;18.940;2023-11-19T02:25:30;98591.56;;;-0.20;100.00
65756;BME280;69208;47.502;18.940;2023-11-19T02:26:52;98589.19;;;-0.22;100.00
65756;BME280;69208;47.502;18.940;2023-11-19T02:28:01;98582.66;;;-0.25;100.00
65756;BME280;69208;47.502;18.940;2023-11-19T02:29:04;98586.03;;;-0.24;100.00
65756;BME280;69208;47.502;18.940;2023-11-19T02:30:11;98586.25;;;-0.26;100.00
65756;BME280;69208;47.502;18.940;2023-11-19T02:31:17;98599.84;;;-0.18;100.00
65756;BME280;69208;47.502;18.940;2023-11-19T02:32:23;98591.06;;;-0.11;100.00
65756;BME280;69208;47.502;18.940;2023-11-19T02:33:26;98600.38;;;-0.10;100.00
65756;BME280;69208;47.502;18.940;2023-11-19T02:34:30;98601.00;;;-0.14;100.00
65756;BME280;69208;47.502;18.940;2023-11-19T02:35:33;98610.62;;;-0.28;100.00
65756;BME280;69208;47.502;18.940;2023-11-19T02:36:37;98609.06;;;-0.29;100.00
65756;BME280;69208;47.502;18.940;2023-11-19T02:37:40;98602.12;;;-0.29;100.00
65756;BME280;69208;47.502;18.940;2023-11-19T02:38:43;98604.88;;;-0.30;100.00
65756;BME280;69208;47.502;18.940;2023-11-19T02:39:46;98602.00;;;-0.40;100.00
65756;BME280;69208;47.502;18.940;2023-11-19T02:40:49;98599.50;;;-0.47;100.00
65756;BME280;69208;47.502;18.940;2023-11-19T02:41:52;98586.97;;;-0.43;100.00
65756;BME280;69208;47.502;18.940;2023-11-19T02:42:56;98584.00;;;-0.40;100.00
65756;BME280;69208;47.502;18.940;2023-11-19T02:43:59;98587.50;;;-0.35;100.00
65756;BME280;69208;47.502;18.940;2023-11-19T02:45:04;98591.91;;;-0.42;100.00
65756;BME280;69208;47.502;18.940;2023-11-19T02:46:09;98584.19;;;-0.42;100.00
65756;BME280;69208;47.502;18.940;2023-11-19T02:47:15;98583.94;;;-0.34;100.00
65756;BME280;69208;47.502;18.940;2023-11-19T02:48:18;98577.63;;;-0.38;100.00
65756;BME280;69208;47.502;18.940;2023-11-19T02:49:21;98567.69;;;-0.34;100.00
65756;BME280;69208;47.502;18.940;2023-11-19T02:50:24;98570.28;;;-0.34;100.00
65756;BME280;69208;47.502;18.940;2023-11-19T02:51:28;98570.88;;;-0.32;100.00
65756;BME280;69208;47.502;18.940;2023-11-19T02:52:33;98562.50;;;-0.28;100.00
65756;BME280;69208;47.502;18.940;2023-11-19T02:53:40;98571.75;;;-0.20;100.00
65756;BME280;69208;47.502;18.940;2023-11-19T02:54:44;98567.00;;;-0.23;100.00
65756;BME280;69208;47.502;18.940;2023-11-19T02:55:47;98569.38;;;-0.21;100.00
65756;BME280;69208;47.502;18.940;2023-11-19T02:56:53;98570.31;;;-0.16;100.00
65756;BME280;69208;47.502;18.940;2023-11-19T02:58:02;98572.09;;;-0.16;100.00
65756;BME280;69208;47.502;18.940;2023-11-19T02:59:11;98568.81;;;-0.24;100.00
65756;BME280;69208;47.502;18.940;2023-11-19T03:00:29;98567.97;;;-0.17;100.00
65756;BME280;69208;47.502;18.940;2023-11-19T03:01:40;98567.47;;;-0.08;100.00
65756;BME280;69208;47.502;18.940;2023-11-19T03:02:46;98562.75;;;-0.11;100.00
65756;BME280;69208;47.502;18.940;2023-11-19T03:03:51;98558.38;;;-0.10;100.00
65756;BME280;69208;47.502;18.940;2023-11-19T03:05:00;98553.37;;;-0.05;100.00
65756;BME280;69208;47.502;18.940;2023-11-19T03:06:04;98560.16;;;-0.11;100.00
65756;BME280;69208;47.502;18.940;2023-11-19T03:07:07;98553.28;;;-0.17;100.00
65756;BME280;69208;47.502;18.940;2023-11-19T03:08:10;98556.34;;;-0.27;100.00
65756;BME280;69208;47.502;18.940;2023-11-19T03:09:25;98549.19;;;-0.25;100.00
65756;BME280;69208;47.502;18.940;2023-11-19T03:10:28;98557.69;;;-0.24;100.00
65756;BME280;69208;47.502;18.940;2023-11-19T03:11:32;98553.41;;;-0.30;100.00
65756;BME280;69208;47.502;18.940;2023-11-19T03:12:35;98552.97;;;-0.27;100.00
65756;BME280;69208;47.502;18.940;2023-11-19T03:13:38;98550.78;;;-0.24;100.00
65756;BME280;69208;47.502;18.940;2023-11-19T03:14:41;98552.50;;;-0.17;100.00
65756;BME280;69208;47.502;18.940;2023-11-19T03:15:44;98547.88;;;-0.09;100.00
65756;BME280;69208;47.502;18.940;2023-11-19T03:16:48;98551.44;;;-0.10;100.00
65756;BME280;69208;47.502;18.940;2023-11-19T03:17:52;98544.91;;;-0.12;100.00
65756;BME280;69208;47.502;18.940;2023-11-19T03:18:55;98534.25;;;-0.16;100.00
65756;BME280;69208;47.502;18.940;2023-11-19T03:19:59;98539.84;;;-0.19;100.00
65756;BME280;69208;47.502;18.940;2023-11-19T03:21:04;98540.97;;;-0.15;100.00
65756;BME280;69208;47.502;18.940;2023-11-19T03:22:07;98543.34;;;-0.13;100.00
65756;BME280;69208;47.502;18.940;2023-11-19T03:23:10;98541.41;;;-0.18;100.00
65756;BME280;69208;47.502;18.940;2023-11-19T03:24:13;98538.03;;;-0.18;100.00
65756;BME280;69208;47.502;18.940;2023-11-19T03:25:17;98540.41;;;-0.17;100.00
65756;BME280;69208;47.502;18.940;2023-11-19T03:26:21;98545.06;;;-0.07;100.00
65756;BME280;69208;47.502;18.940;2023-11-19T03:27:25;98544.66;;;-0.04;100.00
65756;BME280;69208;47.502;18.940;2023-11-19T03:28:28;98544.66;;;-0.04;100.00
65756;BME280;69208;47.502;18.940;2023-11-19T03:29:31;98544.28;;;-0.08;100.00
65756;BME280;69208;47.502;18.940;2023-11-19T03:30:35;98535.00;;;-0.09;100.00
65756;BME280;69208;47.502;18.940;2023-11-19T03:31:42;98536.41;;;-0.13;100.00
65756;BME280;69208;47.502;18.940;2023-11-19T03:32:45;98535.00;;;-0.09;100.00
65756;BME280;69208;47.502;18.940;2023-11-19T03:33:48;98537.19;;;-0.12;100.00
65756;BME280;69208;47.502;18.940;2023-11-19T03:34:52;98537.19;;;-0.12;100.00
65756;BME280;69208;47.502;18.940;2023-11-19T03:35:56;98542.72;;;-0.09;100.00
65756;BME280;69208;47.502;18.940;2023-11-19T03:36:59;98536.63;;;-0.14;100.00
65756;BME280;69208;47.502;18.940;2023-11-19T03:38:02;98534.50;;;-0.17;100.00
65756;BME280;69208;47.502;18.940;2023-11-19T03:39:05;98529.53;;;-0.19;100.00
65756;BME280;69208;47.502;18.940;2023-11-19T03:40:09;98515.66;;;-0.18;100.00
65756;BME280;69208;47.502;18.940;2023-11-19T03:41:14;98517.50;;;-0.25;100.00
65756;BME280;69208;47.502;18.940;2023-11-19T03:42:19;98520.16;;;-0.32;100.00
65756;BME280;69208;47.502;18.940;2023-11-19T03:43:23;98523.41;;;-0.43;100.00
65756;BME280;69208;47.502;18.940;2023-11-19T03:44:27;98524.44;;;-0.44;100.00
65756;BME280;69208;47.502;18.940;2023-11-19T03:45:30;98527.19;;;-0.46;100.00
65756;BME280;69208;47.502;18.940;2023-11-19T03:46:33;98526.19;;;-0.44;100.00
65756;BME280;69208;47.502;18.940;2023-11-19T03:47:38;98521.69;;;-0.49;100.00
65756;BME280;69208;47.502;18.940;2023-11-19T03:48:42;98520.50;;;-0.47;100.00
65756;BME280;69208;47.502;18.940;2023-11-19T03:49:52;98509.00;;;-0.44;100.00
65756;BME280;69208;47.502;18.940;2023-11-19T03:50:55;98503.53;;;-0.36;100.00
65756;BME280;69208;47.502;18.940;2023-11-19T03:51:58;98502.56;;;-0.35;100.00
65756;BME280;69208;47.502;18.940;2023-11-19T03:53:01;98507.06;;;-0.30;100.00
65756;BME280;69208;47.502;18.940;2023-11-19T03:54:05;98505.13;;;-0.35;100.00
65756;BME280;69208;47.502;18.940;2023-11-19T03:55:09;98500.94;;;-0.29;100.00
65756;BME280;69208;47.502;18.940;2023-11-19T03:56:13;98496.22;;;-0.32;100.00
65756;BME280;69208;47.502;18.940;2023-11-19T03:57:16;98504.47;;;-0.30;100.00
65756;BME280;69208;47.502;18.940;2023-11-19T03:58:19;98501.13;;;-0.31;100.00
65756;BME280;69208;47.502;18.940;2023-11-19T03:59:22;98504.28;;;-0.29;100.00
65756;BME280;69208;47.502;18.940;2023-11-19T04:00:25;98510.94;;;-0.21;100.00
65756;BME280;69208;47.502;18.940;2023-11-19T04:01:28;98504.47;;;-0.30;100.00
65756;BME280;69208;47.502;18.940;2023-11-19T04:02:31;98506.84;;;-0.29;100.00
65756;BME280;69208;47.502;18.940;2023-11-19T04:03:35;98495.34;;;-0.26;100.00
65756;BME280;69208;47.502;18.940;2023-11-19T04:04:38;98497.94;;;-0.26;100.00
65756;BME280;69208;47.502;18.940;2023-11-19T04:05:42;98485.47;;;-0.29;100.00
65756;BME280;69208;47.502;18.940;2023-11-19T04:06:45;98495.12;;;-0.25;100.00
65756;BME280;69208;47.502;18.940;2023-11-19T04:07:48;98491.19;;;-0.27;100.00
65756;BME280;69208;47.502;18.940;2023-11-19T04:08:51;98480.84;;;-0.20;100.00
65756;BME280;69208;47.502;18.940;2023-11-19T04:09:54;98474.53;;;-0.25;100.00
65756;BME280;69208;47.502;18.940;2023-11-19T04:10:57;98466.03;;;-0.25;100.00
65756;BME280;69208;47.502;18.940;2023-11-19T04:12:00;98463.25;;;-0.24;100.00
65756;BME280;69208;47.502;18.940;2023-11-19T04:13:03;98463.38;;;-0.18;100.00
65756;BME280;69208;47.502;18.940;2023-11-19T04:14:07;98473.91;;;-0.20;100.00
65756;BME280;69208;47.502;18.940;2023-11-19T04:15:11;98470.31;;;-0.19;100.00
65756;BME280;69208;47.502;18.940;2023-11-19T04:16:14;98470.97;;;-0.24;100.00
65756;BME280;69208;47.502;18.940;2023-11-19T04:17:17;98473.97;;;-0.27;100.00
65756;BME280;69208;47.502;18.940;2023-11-19T04:18:21;98475.31;;;-0.24;100.00
65756;BME280;69208;47.502;18.940;2023-11-19T04:19:24;98480.34;;;-0.29;100.00
65756;BME280;69208;47.502;18.940;2023-11-19T04:20:27;98482.47;;;-0.26;100.00
65756;BME280;69208;47.502;18.940;2023-11-19T04:21:30;98480.53;;;-0.31;100.00
65756;BME280;69208;47.502;18.940;2023-11-19T04:22:33;98473.03;;;-0.32;100.00
65756;BME280;69208;47.502;18.940;2023-11-19T04:23:36;98477.97;;;-0.31;100.00
65756;BME280;69208;47.502;18.940;2023-11-19T04:24:39;98467.75;;;-0.37;100.00
65756;BME280;69208;47.502;18.940;2023-11-19T04:25:43;98470.00;;;-0.48;100.00
65756;BME280;69208;47.502;18.940;2023-11-19T04:26:47;98474.84;;;-0.58;100.00
65756;BME280;69208;47.502;18.940;2023-11-19T04:27:50;98463.19;;;-0.60;100.00
65756;BME280;69208;47.502;18.940;2023-11-19T04:28:53;98467.63;;;-0.67;100.00
65756;BME280;69208;47.502;18.940;2023-11-19T04:29:56;98461.53;;;-0.73;100.00
65756;BME280;69208;47.502;18.940;2023-11-19T04:31:00;98471.03;;;-0.74;100.00
65756;BME280;69208;47.502;18.940;2023-11-19T04:32:03;98464.72;;;-0.78;100.00
65756;BME280;69208;47.502;18.940;2023-11-19T04:33:08;98457.69;;;-0.89;100.00
65756;BME280;69208;47.502;18.940;2023-11-19T04:34:11;98453.56;;;-0.90;100.00
65756;BME280;69208;47.502;18.940;2023-11-19T04:35:15;98459.28;;;-0.88;100.00
65756;BME280;69208;47.502;18.940;2023-11-19T04:36:18;98465.62;;;-0.90;100.00
65756;BME280;69208;47.502;18.940;2023-11-19T04:37:22;98457.84;;;-0.84;100.00
65756;BME280;69208;47.502;18.940;2023-11-19T04:38:26;98461.25;;;-0.90;100.00
65756;BME280;69208;47.502;18.940;2023-11-19T04:39:29;98466.34;;;-0.83;100.00
65756;BME280;69208;47.502;18.940;2023-11-19T04:40:33;98472.91;;;-0.87;100.00
65756;BME280;69208;47.502;18.940;2023-11-19T04:41:36;98475.31;;;-0.93;100.00
65756;BME280;69208;47.502;18.940;2023-11-19T04:42:39;98493.13;;;-0.91;100.00
65756;BME280;69208;47.502;18.940;2023-11-19T04:43:45;98494.16;;;-0.99;100.00
65756;BME280;69208;47.502;18.940;2023-11-19T04:44:48;98489.59;;;-0.97;100.00
65756;BME280;69208;47.502;18.940;2023-11-19T04:45:51;98495.91;;;-0.93;100.00
65756;BME280;69208;47.502;18.940;2023-11-19T04:46:54;98489.12;;;-0.87;100.00
65756;BME280;69208;47.502;18.940;2023-11-19T04:47:58;98496.84;;;-0.87;100.00
65756;BME280;69208;47.502;18.940;2023-11-19T04:49:01;98486.94;;;-0.83;100.00
65756;BME280;69208;47.502;18.940;2023-11-19T04:50:05;98491.09;;;-0.82;100.00
65756;BME280;69208;47.502;18.940;2023-11-19T04:51:08;98492.47;;;-0.80;100.00
65756;BME280;69208;47.502;18.940;2023-11-19T04:52:14;98495.81;;;-0.79;100.00
65756;BME280;69208;47.502;18.940;2023-11-19T04:53:18;98502.16;;;-0.82;100.00
65756;BME280;69208;47.502;18.940;2023-11-19T04:54:21;98497.59;;;-0.80;100.00
65756;BME280;69208;47.502;18.940;2023-11-19T04:55:24;98498.94;;;-0.77;100.00
65756;BME280;69208;47.502;18.940;2023-11-19T04:56:28;98510.25;;;-0.78;100.00
65756;BME280;69208;47.502;18.940;2023-11-19T04:57:31;98503.84;;;-0.69;100.00
65756;BME280;69208;47.502;18.940;2023-11-19T04:58:35;98501.69;;;-0.72;100.00
65756;BME280;69208;47.502;18.940;2023-11-19T04:59:40;98507.41;;;-0.70;100.00
65756;BME280;69208;47.502;18.940;2023-11-19T05:00:44;98503.06;;;-0.70;100.00
65756;BME280;69208;47.502;18.940;2023-11-19T05:01:48;98499.47;;;-0.69;100.00
65756;BME280;69208;47.502;18.940;2023-11-19T05:02:51;98488.41;;;-0.69;100.00
65756;BME280;69208;47.502;18.940;2023-11-19T05:03:56;98478.91;;;-0.69;100.00
65756;BME280;69208;47.502;18.940;2023-11-19T05:05:02;98474.34;;;-0.66;100.00
65756;BME280;69208;47.502;18.940;2023-11-19T05:06:08;98477.53;;;-0.71;100.00
65756;BME280;69208;47.502;18.940;2023-11-19T05:07:11;98476.47;;;-0.63;100.00
65756;BME280;69208;47.502;18.940;2023-11-19T05:08:14;98478.28;;;-0.64;100.00
65756;BME280;69208;47.502;18.940;2023-11-19T05:09:17;98474.28;;;-0.60;100.00
65756;BME280;69208;47.502;18.940;2023-11-19T05:10:21;98476.00;;;-0.54;100.00
65756;BME280;69208;47.502;18.940;2023-11-19T05:11:24;98478.13;;;-0.51;100.00
65756;BME280;69208;47.502;18.940;2023-11-19T05:12:27;98477.16;;;-0.50;100.00
65756;BME280;69208;47.502;18.940;2023-11-19T05:13:30;98486.03;;;-0.46;100.00
65756;BME280;69208;47.502;18.940;2023-11-19T05:14:34;98484.97;;;-0.38;100.00
65756;BME280;69208;47.502;18.940;2023-11-19T05:15:37;98488.84;;;-0.29;100.00
65756;BME280;69208;47.502;18.940;2023-11-19T05:16:41;98498.91;;;-0.27;100.00
65756;BME280;69208;47.502;18.940;2023-11-19T05:17:44;98503.78;;;-0.19;100.00
65756;BME280;69208;47.502;18.940;2023-11-19T05:18:48;98498.44;;;-0.17;100.00
65756;BME280;69208;47.502;18.940;2023-11-19T05:19:51;98500.19;;;-0.18;100.00
65756;BME280;69208;47.502;18.940;2023-11-19T05:20:55;98508.88;;;-0.12;100.00
65756;BME280;69208;47.502;18.940;2023-11-19T05:21:58;98500.09;;;-0.05;100.00
65756;BME280;69208;47.502;18.940;2023-11-19T05:23:01;98491.16;;;-0.02;100.00
65756;BME280;69208;47.502;18.940;2023-11-19T05:24:05;98488.12;;;0.01;100.00
65756;BME280;69208;47.502;18.940;2023-11-19T05:25:08;98480.19;;;0.03;100.00
65756;BME280;69208;47.502;18.940;2023-11-19T05:26:20;98484.56;;;0.02;100.00
65756;BME280;69208;47.502;18.940;2023-11-19T05:27:24;98481.19;;;0.02;100.00
65756;BME280;69208;47.502;18.940;2023-11-19T05:28:27;98477.41;;;0.04;100.00
65756;BME280;69208;47.502;18.940;2023-11-19T05:29:30;98477.97;;;0.06;100.00
65756;BME280;69208;47.502;18.940;2023-11-19T05:30:33;98479.19;;;0.04;100.00
65756;BME280;69208;47.502;18.940;2023-11-19T05:31:36;98471.47;;;0.04;100.00
65756;BME280;69208;47.502;18.940;2023-11-19T05:32:41;98474.59;;;0.06;100.00